Time;durP1;ratioP1;P1;durP2;ratioP2;P2;SDS_P1;SDS_P2;PMS_P1;PMS_P2;Temp;Humidity;BMP_temperature;BMP_pressure;BME280_temperature;BME280_humidity;BME280_pressure;Samples;Min_cycle;Max_cycle;Signal;HPM_P1;HPM_P2
2022/10/10 00:01:38;;;;;;;7.08;3.75;;;27.20;99.90;;;;;;1873914;76;21252;-85
2022/10/10 00:04:09;;;;;;;8.83;4.55;;;27.20;99.90;;;;;;1812541;78;21175;-85
2022/10/10 00:06:39;;;;;;;7.45;3.52;;;27.10;99.90;;;;;;1853598;76;21167;-85
2022/10/10 00:09:10;;;;;;;7.85;3.40;;;27.20;99.90;;;;;;1803699;78;21084;-84
2022/10/10 00:11:41;;;;;;;6.83;3.80;;;27.20;99.90;;;;;;1823134;78;21144;-84
2022/10/10 00:14:11;;;;;;;6.12;3.95;;;27.30;99.90;;;;;;1823155;78;21126;-84
2022/10/10 00:16:42;;;;;;;6.42;3.70;;;27.30;99.90;;;;;;1855652;76;21221;-85
2022/10/10 00:19:13;;;;;;;5.87;4.00;;;27.40;99.90;;;;;;1819170;77;21183;-85
2022/10/10 00:21:44;;;;;;;8.10;3.80;;;27.40;99.80;;;;;;1846628;76;21160;-86
2022/10/10 00:24:14;;;;;;;7.85;3.62;;;27.50;99.70;;;;;;1849398;77;21124;-85
2022/10/10 00:26:45;;;;;;;5.25;2.95;;;27.60;99.40;;;;;;1854696;76;21165;-84
2022/10/10 00:29:16;;;;;;;9.08;3.00;;;27.60;99.20;;;;;;1818562;78;21159;-84
2022/10/10 00:31:47;;;;;;;6.15;3.50;;;27.60;99.30;;;;;;1778655;78;21120;-84
2022/10/10 00:34:18;;;;;;;6.92;3.20;;;27.60;98.70;;;;;;1782705;79;21404;-86
2022/10/10 00:36:48;;;;;;;8.25;2.50;;;27.70;98.10;;;;;;1791084;79;21171;-85
2022/10/10 00:39:19;;;;;;;4.60;2.30;;;27.70;97.70;;;;;;1786031;79;21140;-84
2022/10/10 00:41:50;;;;;;;8.25;2.65;;;27.70;97.60;;;;;;1777574;79;21100;-83
2022/10/10 00:44:21;;;;;;;5.30;3.08;;;27.70;97.60;;;;;;1815694;77;21204;-83
2022/10/10 00:46:51;;;;;;;5.85;3.17;;;27.70;97.40;;;;;;1788060;80;21183;-84
2022/10/10 00:49:24;;;;;;;5.35;2.15;;;27.70;97.20;;;;;;1797833;78;21147;-85
2022/10/10 00:51:58;;;;;;;6.00;2.90;;;27.80;97.30;;;;;;1780943;79;21175;-85
2022/10/10 00:54:30;;;;;;;8.70;3.10;;;27.80;97.00;;;;;;1840440;77;21085;-72
2022/10/10 00:57:03;;;;;;;6.50;2.72;;;27.80;97.00;;;;;;1812779;78;21186;-71
2022/10/10 00:59:36;;;;;;;5.80;2.90;;;27.90;96.70;;;;;;1798326;77;21064;-72
2022/10/10 01:02:07;;;;;;;6.42;3.17;;;27.90;96.80;;;;;;1822942;77;21122;-72
2022/10/10 01:04:40;;;;;;;7.45;2.75;;;28.00;96.80;;;;;;1814676;77;21153;-72
2022/10/10 01:07:15;;;;;;;8.28;3.45;;;28.00;96.50;;;;;;1814355;77;21176;-72
2022/10/10 01:09:47;;;;;;;7.05;4.15;;;28.10;96.60;;;;;;1820821;77;21594;-73
2022/10/10 01:12:38;;;;;;;7.42;3.40;;;28.00;96.60;;;;;;1787591;79;21653;-73
2022/10/10 01:15:11;;;;;;;6.58;2.87;;;28.00;96.60;;;;;;1753281;81;22282;-72
2022/10/10 01:17:43;;;;;;;6.12;2.92;;;28.00;96.60;;;;;;1808877;78;21759;-73
2022/10/10 01:20:16;;;;;;;5.53;2.80;;;28.00;96.50;;;;;;1804897;78;21222;-73
2022/10/10 01:22:49;;;;;;;6.85;2.98;;;28.10;96.60;;;;;;1784115;79;21588;-73
2022/10/10 01:25:21;;;;;;;9.43;3.83;;;28.10;96.70;;;;;;1798775;79;21139;-73
2022/10/10 01:27:55;;;;;;;4.50;2.95;;;28.10;96.60;;;;;;1788911;79;21196;-70
2022/10/10 01:30:26;;;;;;;18.52;3.72;;;28.10;96.50;;;;;;1797411;79;21232;-71
2022/10/10 01:32:59;;;;;;;5.65;2.90;;;28.20;96.40;;;;;;1804558;79;21705;-72
2022/10/10 01:35:33;;;;;;;3.87;2.55;;;28.20;96.30;;;;;;1799914;79;21646;-71
2022/10/10 01:38:05;;;;;;;6.33;2.95;;;28.20;96.40;;;;;;1793435;79;21671;-72
2022/10/10 01:40:36;;;;;;;4.78;2.80;;;28.30;96.20;;;;;;1786846;79;21174;-72
2022/10/10 01:43:09;;;;;;;4.75;2.40;;;28.40;95.90;;;;;;1788901;80;21118;-74
2022/10/10 01:45:42;;;;;;;5.35;2.83;;;28.40;95.70;;;;;;1779368;80;21111;-72
2022/10/10 01:48:15;;;;;;;5.53;2.72;;;28.40;95.90;;;;;;1795626;79;21644;-73
2022/10/10 01:50:48;;;;;;;4.53;2.20;;;28.50;95.90;;;;;;1737192;81;21152;-71
2022/10/10 01:53:21;;;;;;;8.50;2.80;;;28.50;95.80;;;;;;1785789;79;21150;-71
2022/10/10 01:55:54;;;;;;;5.78;2.87;;;28.50;95.90;;;;;;1788487;79;21213;-73
2022/10/10 01:58:25;;;;;;;6.53;2.40;;;28.60;95.90;;;;;;1786069;79;21173;-71
2022/10/10 02:00:57;;;;;;;4.67;1.87;;;28.60;95.90;;;;;;1786312;79;21188;-72
2022/10/10 02:03:30;;;;;;;5.28;2.47;;;28.60;95.40;;;;;;1786684;78;21255;-72
2022/10/10 02:06:03;;;;;;;4.62;2.20;;;28.70;95.10;;;;;;1798923;79;21071;-72
2022/10/10 02:08:35;;;;;;;3.50;2.10;;;28.70;94.40;;;;;;1787367;80;21643;-72
2022/10/10 02:11:09;;;;;;;4.50;2.40;;;28.80;94.20;;;;;;1785602;79;21538;-72
2022/10/10 02:13:41;;;;;;;7.22;2.47;;;28.80;94.30;;;;;;1799085;78;21173;-72
2022/10/10 02:16:14;;;;;;;3.75;2.55;;;28.90;94.10;;;;;;1788812;78;21095;-72
2022/10/10 02:18:47;;;;;;;5.25;2.83;;;29.00;94.30;;;;;;1784480;79;21164;-72
2022/10/10 02:21:19;;;;;;;2.58;2.10;;;29.10;94.30;;;;;;1791875;79;21868;-72
2022/10/10 02:23:53;;;;;;;4.15;2.10;;;29.10;94.00;;;;;;1785231;80;21124;-72
2022/10/10 02:26:25;;;;;;;4.40;1.87;;;29.20;93.50;;;;;;1792819;79;21216;-72
2022/10/10 02:28:59;;;;;;;4.92;2.37;;;29.30;93.30;;;;;;1803809;78;21778;-73
2022/10/10 02:31:32;;;;;;;4.42;1.82;;;29.30;93.10;;;;;;1787857;79;21255;-71
2022/10/10 02:34:05;;;;;;;6.10;1.95;;;29.40;92.40;;;;;;1789721;79;21725;-71
2022/10/10 02:36:38;;;;;;;4.47;1.70;;;29.40;93.00;;;;;;1795244;79;21240;-70
2022/10/10 02:39:10;;;;;;;4.17;1.60;;;29.40;91.90;;;;;;1790525;79;21558;-73
2022/10/10 02:41:43;;;;;;;5.25;2.25;;;29.50;91.80;;;;;;1803845;78;21139;-73
2022/10/10 02:44:15;;;;;;;3.62;1.50;;;29.50;91.50;;;;;;1800669;79;21828;-74
2022/10/10 02:46:45;;;;;;;2.37;1.30;;;29.60;91.40;;;;;;1807678;78;21563;-73
2022/10/10 02:49:19;;;;;;;2.25;1.20;;;29.70;91.20;;;;;;1787948;79;21660;-72
2022/10/10 02:51:49;;;;;;;2.37;1.02;;;29.80;90.20;;;;;;1782444;79;21198;-72
2022/10/10 02:54:21;;;;;;;4.40;1.40;;;29.80;90.00;;;;;;1787380;79;21598;-72
2022/10/10 02:56:52;;;;;;;3.05;1.50;;;30.00;89.90;;;;;;1810686;78;21200;-72
2022/10/10 02:59:22;;;;;;;3.80;1.35;;;30.10;90.00;;;;;;1778617;79;21166;-73
2022/10/10 03:01:53;;;;;;;3.02;1.10;;;30.20;88.40;;;;;;1792138;79;21135;-73
2022/10/10 03:04:24;;;;;;;2.55;1.15;;;30.10;87.20;;;;;;1776311;79;21948;-73
2022/10/10 03:06:55;;;;;;;5.30;1.00;;;30.10;87.10;;;;;;1786630;79;21204;-74
2022/10/10 03:09:25;;;;;;;2.62;1.10;;;30.10;88.10;;;;;;1786283;78;21177;-74
2022/10/10 03:11:56;;;;;;;2.92;1.20;;;30.10;87.90;;;;;;1789081;78;21209;-74
2022/10/10 03:14:27;;;;;;;2.65;1.20;;;30.10;87.60;;;;;;1789108;78;22197;-74
2022/10/10 03:16:58;;;;;;;2.33;1.00;;;30.10;87.10;;;;;;1814021;78;21137;-74
2022/10/10 03:19:28;;;;;;;2.40;1.40;;;30.10;88.90;;;;;;1812223;77;21724;-74
2022/10/10 03:21:59;;;;;;;3.22;1.27;;;30.10;87.90;;;;;;1819224;77;21166;-74
2022/10/10 03:24:30;;;;;;;3.37;1.55;;;30.10;87.90;;;;;;1803420;77;21237;-74
2022/10/10 03:27:01;;;;;;;2.95;1.40;;;30.00;88.30;;;;;;1814074;77;21105;-74
2022/10/10 03:29:32;;;;;;;3.17;1.57;;;30.00;88.70;;;;;;1813776;77;21133;-74
2022/10/10 03:32:03;;;;;;;2.70;1.20;;;30.00;89.20;;;;;;1812484;77;21639;-74
2022/10/10 03:34:35;;;;;;;3.67;1.52;;;30.00;89.50;;;;;;1814697;78;21288;-74
2022/10/10 03:37:06;;;;;;;3.17;1.50;;;30.10;89.20;;;;;;1813546;78;21256;-74
2022/10/10 03:39:37;;;;;;;2.77;1.40;;;30.20;89.80;;;;;;1823232;77;21091;-74
2022/10/10 03:42:08;;;;;;;4.97;1.55;;;30.20;88.90;;;;;;1808318;79;21170;-74
2022/10/10 03:44:39;;;;;;;5.35;1.40;;;30.30;87.80;;;;;;1787732;80;21115;-73
2022/10/10 03:47:10;;;;;;;3.10;1.15;;;30.30;87.60;;;;;;1753031;81;21670;-74
2022/10/10 03:49:41;;;;;;;4.35;2.22;;;30.50;86.60;;;;;;1757196;80;21583;-74
2022/10/10 03:52:12;;;;;;;5.08;1.50;;;30.60;86.30;;;;;;1760278;80;21622;-74
2022/10/10 03:54:43;;;;;;;5.87;1.22;;;30.80;85.10;;;;;;1770569;80;21978;-74
2022/10/10 03:57:14;;;;;;;3.75;1.37;;;30.90;85.20;;;;;;1833531;77;21138;-74
2022/10/10 03:59:44;;;;;;;2.83;1.20;;;30.90;84.20;;;;;;1823486;77;21157;-75
2022/10/10 04:02:15;;;;;;;3.08;1.30;;;31.00;84.60;;;;;;1792414;78;21088;-75
2022/10/10 04:04:46;;;;;;;2.70;1.30;;;30.90;85.30;;;;;;1813492;78;21185;-74
2022/10/10 04:07:17;;;;;;;2.83;1.40;;;30.80;84.90;;;;;;1811731;78;21901;-74
2022/10/10 04:09:48;;;;;;;2.25;1.00;;;30.80;85.60;;;;;;1821341;77;21176;-73
2022/10/10 04:12:19;;;;;;;4.28;1.30;;;30.70;84.90;;;;;;1825184;77;21509;-74
2022/10/10 04:14:50;;;;;;;2.62;1.40;;;30.70;85.60;;;;;;1815065;77;21174;-73
2022/10/10 04:17:20;;;;;;;3.95;1.37;;;30.80;85.90;;;;;;1784003;78;21164;-73
2022/10/10 04:19:51;;;;;;;1.52;0.95;;;30.80;85.70;;;;;;1751602;80;21608;-73
2022/10/10 04:22:22;;;;;;;2.77;1.30;;;30.90;84.70;;;;;;1762844;80;21193;-74
2022/10/10 04:24:53;;;;;;;2.67;1.20;;;30.90;85.50;;;;;;1766723;79;21147;-74
2022/10/10 04:27:23;;;;;;;1.80;1.07;;;30.90;85.50;;;;;;1783715;78;21162;-74
2022/10/10 04:29:54;;;;;;;1.62;1.07;;;30.90;84.90;;;;;;1788482;79;21079;-73
2022/10/10 04:32:25;;;;;;;3.25;1.00;;;30.90;85.10;;;;;;1783597;78;21102;-73
2022/10/10 04:34:57;;;;;;;2.37;1.20;;;30.80;85.10;;;;;;1796211;79;21614;-74
2022/10/10 04:37:28;;;;;;;3.00;1.00;;;30.70;85.00;;;;;;1791998;79;21091;-74
2022/10/10 04:39:59;;;;;;;2.30;1.15;;;30.60;85.00;;;;;;1795568;78;21625;-74
2022/10/10 04:42:29;;;;;;;2.70;1.20;;;30.60;85.30;;;;;;1786015;80;21603;-74
2022/10/10 04:45:00;;;;;;;3.27;1.27;;;30.40;85.90;;;;;;1785682;79;21139;-75
2022/10/10 04:47:31;;;;;;;2.00;1.12;;;30.40;86.90;;;;;;1788071;80;21134;-75
2022/10/10 04:50:02;;;;;;;2.17;1.25;;;30.30;87.60;;;;;;1789046;79;21684;-75
2022/10/10 04:52:32;;;;;;;2.75;1.27;;;30.30;87.70;;;;;;1792674;79;21178;-75
2022/10/10 04:55:03;;;;;;;3.95;1.37;;;30.40;88.30;;;;;;1792742;78;21153;-73
2022/10/10 04:57:34;;;;;;;2.27;1.20;;;30.50;87.00;;;;;;1791625;79;21146;-74
2022/10/10 05:00:06;;;;;;;2.30;1.30;;;30.60;86.90;;;;;;1794143;79;21648;-75
2022/10/10 05:02:37;;;;;;;3.27;1.42;;;30.60;86.70;;;;;;1785246;79;21170;-74
2022/10/10 05:05:08;;;;;;;3.70;1.40;;;30.70;86.70;;;;;;1788406;79;21169;-75
2022/10/10 05:07:39;;;;;;;2.80;1.15;;;30.70;86.80;;;;;;1781275;80;21683;-73
2022/10/10 05:10:10;;;;;;;5.45;1.72;;;30.70;86.30;;;;;;1795028;78;21617;-73
2022/10/10 05:12:40;;;;;;;4.53;1.50;;;30.80;86.70;;;;;;1797577;78;21134;-73
2022/10/10 05:15:11;;;;;;;3.30;1.45;;;30.70;86.40;;;;;;1801469;78;21158;-74
2022/10/10 05:17:42;;;;;;;2.95;1.47;;;30.80;86.80;;;;;;1797571;78;21204;-74
2022/10/10 05:20:13;;;;;;;3.60;1.40;;;30.90;86.30;;;;;;1793823;78;21169;-74
2022/10/10 05:22:44;;;;;;;3.65;1.40;;;31.00;86.50;;;;;;1812831;78;21146;-75
2022/10/10 05:25:14;;;;;;;2.35;1.20;;;31.10;84.60;;;;;;1800443;79;21130;-75
2022/10/10 05:27:45;;;;;;;3.12;1.47;;;31.20;84.50;;;;;;1800208;78;21118;-74
2022/10/10 05:30:16;;;;;;;2.05;1.22;;;31.20;83.80;;;;;;1771334;80;21231;-73
2022/10/10 05:32:47;;;;;;;2.90;1.20;;;31.30;84.20;;;;;;1756099;81;21095;-73
2022/10/10 05:35:18;;;;;;;2.17;1.37;;;31.40;84.10;;;;;;1801921;79;21156;-74
2022/10/10 05:37:49;;;;;;;2.15;1.40;;;31.50;84.10;;;;;;1796281;80;21113;-74
2022/10/10 05:40:19;;;;;;;3.65;1.55;;;31.60;84.10;;;;;;1799279;78;21161;-73
2022/10/10 05:42:51;;;;;;;3.98;1.62;;;31.70;84.70;;;;;;1797702;78;21162;-73
2022/10/10 05:45:22;;;;;;;3.25;1.50;;;31.60;85.20;;;;;;1796570;80;21165;-74
2022/10/10 05:47:53;;;;;;;4.80;1.70;;;31.50;85.60;;;;;;1798775;80;21597;-74
2022/10/10 05:50:26;;;;;;;4.62;1.87;;;31.40;85.40;;;;;;1802320;78;21155;-73
2022/10/10 05:52:57;;;;;;;2.87;1.60;;;31.20;85.40;;;;;;1798391;79;21242;-74
2022/10/10 05:55:28;;;;;;;4.03;1.37;;;31.10;85.40;;;;;;1757609;80;21227;-74
2022/10/10 05:57:59;;;;;;;3.12;1.85;;;31.10;85.30;;;;;;1733328;81;21094;-74
2022/10/10 06:00:29;;;;;;;4.33;1.85;;;31.10;86.30;;;;;;1795759;80;21160;-74
2022/10/10 06:03:00;;;;;;;2.52;1.50;;;31.10;86.60;;;;;;1795833;80;21075;-74
2022/10/10 06:05:31;;;;;;;3.40;1.87;;;31.10;85.10;;;;;;1803766;78;21154;-74
2022/10/10 06:08:02;;;;;;;5.72;1.87;;;31.10;85.20;;;;;;1796849;79;21188;-74
2022/10/10 06:10:35;;;;;;;3.25;1.65;;;31.00;85.70;;;;;;1737310;81;21250;-73
2022/10/10 06:13:17;;;;;;;3.47;1.82;;;30.90;86.40;;;;;;1787315;79;22393;-73
2022/10/10 06:15:51;;;;;;;3.45;1.60;;;31.00;86.60;;;;;;1794156;79;21186;-73
2022/10/10 06:18:22;;;;;;;3.45;1.72;;;31.10;85.10;;;;;;1796813;79;21712;-74
2022/10/10 06:20:52;;;;;;;5.42;1.90;;;31.10;84.40;;;;;;1785697;80;21606;-75
2022/10/10 06:23:23;;;;;;;2.52;1.60;;;31.10;84.10;;;;;;1785445;79;21149;-75
2022/10/10 06:25:54;;;;;;;3.98;1.50;;;31.00;84.50;;;;;;1785992;80;21189;-75
2022/10/10 06:28:26;;;;;;;2.60;1.42;;;30.90;84.00;;;;;;1786921;79;21129;-75
2022/10/10 06:31:00;;;;;;;4.50;1.80;;;30.90;84.70;;;;;;1794723;79;21146;-74
2022/10/10 06:33:31;;;;;;;3.50;1.52;;;30.90;85.00;;;;;;1783651;79;21830;-73
2022/10/10 06:36:04;;;;;;;4.35;1.60;;;31.00;83.50;;;;;;1785175;79;21111;-74
2022/10/10 06:38:37;;;;;;;3.33;1.60;;;31.00;83.80;;;;;;1787802;79;21196;-74
2022/10/10 06:41:09;;;;;;;4.85;1.50;;;30.90;84.50;;;;;;1785699;79;21149;-74
2022/10/10 06:43:40;;;;;;;3.52;1.45;;;31.00;84.90;;;;;;1783784;80;21186;-74
2022/10/10 06:46:12;;;;;;;3.42;1.60;;;31.00;84.40;;;;;;1788040;80;21563;-73
2022/10/10 06:48:43;;;;;;;4.25;1.42;;;31.00;83.60;;;;;;1797250;79;21147;-73
2022/10/10 06:51:16;;;;;;;2.35;1.40;;;30.90;83.20;;;;;;1795334;79;21665;-74
2022/10/10 06:53:46;;;;;;;4.45;1.47;;;30.90;83.60;;;;;;1785090;80;21232;-73
2022/10/10 06:56:20;;;;;;;2.85;1.85;;;30.90;84.50;;;;;;1792414;79;21531;-74
2022/10/10 06:58:51;;;;;;;2.87;1.77;;;30.90;83.70;;;;;;1787351;79;21542;-73
2022/10/10 07:01:24;;;;;;;2.90;1.80;;;30.90;83.70;;;;;;1787093;80;21158;-74
2022/10/10 07:03:55;;;;;;;2.90;1.60;;;30.80;84.00;;;;;;1782640;79;21117;-73
2022/10/10 07:06:26;;;;;;;4.17;1.60;;;30.80;84.10;;;;;;1792657;79;21205;-74
2022/10/10 07:08:59;;;;;;;4.08;1.67;;;30.70;83.70;;;;;;1786207;79;21149;-73
2022/10/10 07:11:30;;;;;;;3.92;1.40;;;30.70;84.20;;;;;;1790882;79;21107;-73
2022/10/10 07:14:00;;;;;;;3.30;1.40;;;30.80;84.70;;;;;;1787769;80;21594;-74
2022/10/10 07:16:32;;;;;;;2.35;1.65;;;30.80;84.10;;;;;;1791002;79;21233;-73
2022/10/10 07:19:04;;;;;;;2.17;1.50;;;30.80;84.60;;;;;;1793426;78;21198;-73
2022/10/10 07:21:34;;;;;;;2.75;1.60;;;30.70;84.20;;;;;;1791991;79;21142;-72
2022/10/10 07:24:05;;;;;;;3.10;1.72;;;30.60;85.10;;;;;;1791085;79;21121;-72
2022/10/10 07:26:37;;;;;;;4.20;1.75;;;30.50;85.70;;;;;;1785953;79;22070;-72
2022/10/10 07:29:10;;;;;;;8.05;1.65;;;30.50;85.50;;;;;;1785459;80;21094;-73
2022/10/10 07:31:41;;;;;;;2.83;1.55;;;30.40;86.00;;;;;;1783917;80;21162;-73
2022/10/10 07:34:12;;;;;;;1.90;1.42;;;30.50;86.50;;;;;;1783606;80;21106;-75
2022/10/10 07:36:45;;;;;;;2.02;1.25;;;30.50;86.00;;;;;;1789480;79;21171;-74
2022/10/10 07:39:15;;;;;;;2.83;1.52;;;30.50;85.50;;;;;;1787992;79;21633;-74
2022/10/10 07:41:45;;;;;;;2.50;1.75;;;30.50;86.00;;;;;;1783365;80;21334;-74
2022/10/10 07:44:19;;;;;;;3.80;1.42;;;30.40;86.30;;;;;;1788567;79;21657;-74
2022/10/10 07:46:49;;;;;;;4.22;1.77;;;30.40;85.90;;;;;;1792984;79;21567;-74
2022/10/10 07:49:19;;;;;;;3.90;2.02;;;30.40;85.30;;;;;;1788207;80;21161;-74
2022/10/10 07:51:50;;;;;;;3.17;1.90;;;30.30;86.00;;;;;;1788117;80;21567;-74
2022/10/10 07:54:22;;;;;;;4.53;2.05;;;30.20;86.60;;;;;;1788769;80;21276;-75
2022/10/10 07:56:53;;;;;;;6.42;1.85;;;30.20;86.00;;;;;;1788486;79;21545;-74
2022/10/10 07:59:25;;;;;;;3.30;1.98;;;30.10;86.50;;;;;;1788745;80;21194;-74
2022/10/10 08:01:57;;;;;;;3.55;1.65;;;30.10;86.80;;;;;;1785089;79;21213;-74
2022/10/10 08:04:28;;;;;;;2.60;1.82;;;30.10;86.40;;;;;;1792229;79;21430;-74
2022/10/10 08:06:59;;;;;;;2.35;1.62;;;30.00;86.40;;;;;;1787054;80;21165;-74
2022/10/10 08:09:30;;;;;;;2.20;1.65;;;29.90;86.60;;;;;;1783964;80;21660;-74
2022/10/10 08:12:01;;;;;;;3.60;1.90;;;29.90;87.30;;;;;;1787992;79;21193;-74
2022/10/10 08:14:31;;;;;;;3.87;1.85;;;29.80;87.60;;;;;;1785674;79;21145;-74
2022/10/10 08:17:02;;;;;;;2.20;1.50;;;29.80;88.20;;;;;;1791934;79;21174;-75
2022/10/10 08:19:34;;;;;;;2.87;1.82;;;29.80;87.80;;;;;;1787579;79;21743;-74
2022/10/10 08:22:22;;;;;;;3.00;1.75;;;29.90;87.80;;;;;;1763543;80;22288;-72
2022/10/10 08:24:53;;;;;;;4.47;1.67;;;30.00;87.70;;;;;;1728449;83;21294;-73
2022/10/10 08:27:24;;;;;;;4.00;2.30;;;30.00;87.50;;;;;;1781570;80;21652;-73
2022/10/10 08:29:55;;;;;;;4.35;1.85;;;30.00;87.10;;;;;;1779184;80;21636;-73
2022/10/10 08:32:26;;;;;;;3.35;1.67;;;30.10;87.20;;;;;;1776610;80;21246;-73
2022/10/10 08:34:57;;;;;;;3.20;2.17;;;30.00;87.10;;;;;;1781160;79;21946;-73
2022/10/10 08:37:29;;;;;;;3.30;1.90;;;30.10;87.00;;;;;;1780523;79;21621;-73
2022/10/10 08:40:01;;;;;;;2.72;1.75;;;30.10;87.40;;;;;;1758583;79;21113;-72
2022/10/10 08:42:34;;;;;;;5.53;1.77;;;30.10;86.70;;;;;;1780361;80;21110;-73
2022/10/10 08:45:09;;;;;;;2.80;1.50;;;30.10;87.00;;;;;;1779962;80;21273;-73
2022/10/10 08:47:42;;;;;;;3.35;1.70;;;30.10;87.30;;;;;;1782526;80;21257;-73
2022/10/10 08:50:15;;;;;;;3.67;1.75;;;30.00;87.10;;;;;;1790116;80;21184;-72
2022/10/10 08:52:48;;;;;;;2.37;1.57;;;30.00;87.30;;;;;;1788641;78;21279;-74
2022/10/10 08:55:22;;;;;;;3.75;1.80;;;30.00;87.60;;;;;;1779265;79;21156;-74
2022/10/10 08:57:55;;;;;;;2.40;1.80;;;30.00;87.70;;;;;;1773563;80;21712;-75
2022/10/10 09:00:28;;;;;;;2.77;1.95;;;30.00;87.40;;;;;;1783201;80;21639;-75
2022/10/10 09:03:00;;;;;;;2.65;1.70;;;30.00;87.60;;;;;;1781123;79;21198;-73
2022/10/10 09:05:33;;;;;;;3.95;1.57;;;29.90;87.50;;;;;;1790028;78;21205;-72
2022/10/10 09:08:07;;;;;;;4.20;2.00;;;29.90;87.50;;;;;;1767680;80;21237;-73
2022/10/10 09:10:38;;;;;;;3.47;1.80;;;29.90;87.50;;;;;;1776941;79;21633;-73
2022/10/10 09:13:12;;;;;;;4.45;1.87;;;29.80;87.60;;;;;;1780424;80;21627;-73
2022/10/10 09:15:44;;;;;;;3.65;1.95;;;29.90;87.60;;;;;;1781841;79;21626;-73
2022/10/10 09:18:16;;;;;;;4.03;1.87;;;29.80;87.80;;;;;;1780639;80;21133;-74
2022/10/10 09:20:49;;;;;;;3.25;2.00;;;29.80;87.80;;;;;;1790155;80;21619;-73
2022/10/10 09:23:21;;;;;;;2.50;1.60;;;29.80;88.00;;;;;;1770069;79;21180;-74
2022/10/10 09:25:54;;;;;;;3.05;1.57;;;29.70;88.00;;;;;;1785457;80;21255;-74
2022/10/10 09:28:27;;;;;;;3.52;1.70;;;29.60;88.40;;;;;;1790315;80;21271;-72
2022/10/10 09:31:01;;;;;;;2.55;1.70;;;29.60;89.00;;;;;;1794718;79;21639;-74
2022/10/10 09:33:34;;;;;;;3.17;1.55;;;29.50;88.80;;;;;;1792060;80;21123;-73
2022/10/10 09:36:08;;;;;;;4.15;2.00;;;29.50;89.10;;;;;;1787217;79;21692;-74
2022/10/10 09:38:41;;;;;;;3.98;1.85;;;29.50;89.60;;;;;;1791114;79;21694;-74
2022/10/10 09:41:14;;;;;;;2.67;1.77;;;29.40;89.20;;;;;;1789699;80;21652;-74
2022/10/10 09:43:47;;;;;;;4.42;1.92;;;29.40;89.60;;;;;;1791197;80;21626;-75
2022/10/10 09:46:18;;;;;;;3.92;2.50;;;29.40;90.00;;;;;;1791460;80;21173;-75
2022/10/10 09:48:48;;;;;;;4.22;2.15;;;29.40;90.10;;;;;;1789032;79;21597;-74
2022/10/10 09:51:20;;;;;;;2.90;2.10;;;29.30;90.20;;;;;;1746212;80;21115;-74
2022/10/10 09:53:50;;;;;;;3.42;1.85;;;29.30;90.40;;;;;;1790286;79;21200;-75
2022/10/10 09:56:24;;;;;;;4.33;2.37;;;29.30;90.50;;;;;;1744482;79;21603;-74
2022/10/10 09:58:56;;;;;;;5.70;2.00;;;29.30;90.50;;;;;;1750770;79;21087;-73
2022/10/10 10:01:30;;;;;;;3.67;2.37;;;29.30;90.00;;;;;;1739542;80;21172;-73
2022/10/10 10:04:04;;;;;;;4.08;2.08;;;29.30;89.70;;;;;;1759243;80;21161;-73
2022/10/10 10:06:37;;;;;;;4.22;2.33;;;29.30;89.90;;;;;;1787747;79;21197;-72
2022/10/10 10:09:08;;;;;;;3.67;2.12;;;29.20;89.90;;;;;;1790885;79;21541;-73
2022/10/10 10:11:42;;;;;;;4.72;1.85;;;29.20;89.70;;;;;;1781982;80;21161;-73
2022/10/10 10:14:18;;;;;;;3.17;2.02;;;29.10;89.90;;;;;;1752399;80;21256;-73
2022/10/10 10:16:48;;;;;;;4.35;2.05;;;29.10;90.10;;;;;;1787327;80;21125;-74
2022/10/10 10:19:21;;;;;;;4.33;2.08;;;29.10;90.10;;;;;;1793715;79;21223;-73
2022/10/10 10:21:53;;;;;;;4.75;2.12;;;29.00;90.10;;;;;;1788254;78;21344;-72
2022/10/10 10:24:27;;;;;;;3.83;1.90;;;29.00;90.10;;;;;;1783805;78;21139;-73
2022/10/10 10:27:03;;;;;;;3.27;1.80;;;29.00;90.00;;;;;;1741404;78;21735;-71
2022/10/10 10:29:38;;;;;;;6.95;2.08;;;29.00;89.50;;;;;;1738232;78;22187;-71
2022/10/10 10:32:11;;;;;;;2.45;1.67;;;29.00;89.30;;;;;;1783106;78;21196;-75
2022/10/10 10:34:45;;;;;;;3.90;1.77;;;29.00;89.50;;;;;;1748619;79;21199;-72
2022/10/10 10:37:18;;;;;;;4.55;1.85;;;29.00;89.30;;;;;;1754602;78;22130;-73
2022/10/10 10:39:55;;;;;;;4.33;1.97;;;28.90;89.30;;;;;;1778512;78;21122;-72
2022/10/10 10:42:30;;;;;;;5.65;1.85;;;28.90;89.30;;;;;;1757830;78;21181;-71
2022/10/10 10:45:03;;;;;;;6.80;1.98;;;28.90;88.90;;;;;;1789980;78;21516;-73
2022/10/10 10:47:34;;;;;;;4.83;1.60;;;28.80;88.30;;;;;;1779025;78;22202;-72
2022/10/10 10:50:07;;;;;;;3.05;1.82;;;28.80;88.70;;;;;;1775350;78;21612;-73
2022/10/10 10:52:41;;;;;;;3.62;1.60;;;28.70;88.40;;;;;;1789030;80;21168;-74
2022/10/10 10:55:14;;;;;;;2.60;1.52;;;28.70;88.40;;;;;;1790332;80;21119;-75
2022/10/10 10:57:47;;;;;;;3.25;1.70;;;28.70;88.20;;;;;;1790042;79;21172;-74
2022/10/10 11:00:20;;;;;;;5.37;1.47;;;28.70;88.70;;;;;;1787076;80;21248;-75
2022/10/10 11:02:55;;;;;;;2.90;1.60;;;28.60;88.60;;;;;;1789833;78;21208;-74
2022/10/10 11:05:30;;;;;;;2.95;1.55;;;28.60;88.80;;;;;;1793451;79;21209;-75
2022/10/10 11:08:04;;;;;;;5.70;1.85;;;28.60;88.80;;;;;;1814269;77;21126;-73
2022/10/10 11:10:38;;;;;;;3.30;1.77;;;28.50;88.60;;;;;;1812819;79;21626;-74
2022/10/10 11:13:12;;;;;;;3.77;2.00;;;28.50;88.90;;;;;;1791058;80;21219;-75
2022/10/10 11:15:45;;;;;;;3.40;1.92;;;28.50;89.30;;;;;;1802888;79;21126;-74
2022/10/10 11:18:19;;;;;;;3.95;2.15;;;28.40;89.40;;;;;;1761330;80;21207;-75
2022/10/10 11:20:52;;;;;;;4.35;2.10;;;28.40;89.80;;;;;;1790072;79;21302;-74
2022/10/10 11:23:26;;;;;;;3.67;2.37;;;28.40;89.90;;;;;;1772762;79;21216;-74
2022/10/10 11:25:59;;;;;;;3.67;2.30;;;28.40;90.00;;;;;;1791878;79;21141;-74
2022/10/10 11:28:32;;;;;;;4.62;2.90;;;28.30;90.10;;;;;;1788292;80;21715;-75
2022/10/10 11:31:06;;;;;;;6.87;2.80;;;28.30;90.30;;;;;;1788493;79;21090;-74
2022/10/10 11:33:39;;;;;;;4.05;3.17;;;28.30;90.40;;;;;;1787770;79;21149;-74
2022/10/10 11:36:10;;;;;;;5.83;3.15;;;28.20;90.50;;;;;;1792413;78;21173;-73
2022/10/10 11:38:43;;;;;;;5.15;3.10;;;28.30;91.20;;;;;;1798221;79;21163;-73
2022/10/10 11:41:15;;;;;;;9.00;3.60;;;28.20;90.80;;;;;;1801977;77;21165;-72
2022/10/10 11:43:49;;;;;;;5.80;3.10;;;28.20;91.00;;;;;;1791388;79;22318;-73
2022/10/10 11:46:20;;;;;;;5.15;3.30;;;28.20;91.10;;;;;;1791347;79;21166;-88
2022/10/10 11:48:52;;;;;;;6.10;3.77;;;28.20;91.20;;;;;;1788934;80;21092;-82
2022/10/10 11:51:25;;;;;;;5.85;3.90;;;28.10;91.50;;;;;;1791152;79;21248;-82
2022/10/10 11:53:59;;;;;;;7.25;4.12;;;28.10;91.40;;;;;;1791390;78;21656;-82
2022/10/10 11:56:30;;;;;;;5.78;3.80;;;28.10;91.60;;;;;;1791394;79;21153;-82
2022/10/10 11:59:04;;;;;;;5.85;4.00;;;28.00;91.70;;;;;;1790136;80;21161;-80
2022/10/10 12:01:37;;;;;;;7.03;3.87;;;28.00;91.90;;;;;;1790291;79;21705;-81
2022/10/10 12:04:07;;;;;;;6.15;3.83;;;28.00;91.90;;;;;;1789834;79;21147;-82
2022/10/10 12:06:41;;;;;;;6.17;3.35;;;28.00;91.90;;;;;;1791543;80;21621;-82
2022/10/10 12:09:12;;;;;;;3.83;3.02;;;27.90;91.90;;;;;;1790722;80;21189;-82
2022/10/10 12:11:46;;;;;;;4.55;3.30;;;27.80;91.80;;;;;;1796558;78;21236;-82
2022/10/10 12:14:19;;;;;;;8.45;3.80;;;27.80;91.70;;;;;;1783657;79;21848;-81
2022/10/10 12:16:50;;;;;;;4.70;2.72;;;27.80;91.80;;;;;;1786803;80;21200;-83
2022/10/10 12:19:24;;;;;;;4.12;2.80;;;27.70;91.50;;;;;;1785063;79;21156;-83
2022/10/10 12:21:58;;;;;;;3.37;2.27;;;27.70;91.50;;;;;;1775769;80;21680;-82
2022/10/10 12:24:31;;;;;;;7.03;3.00;;;27.60;91.30;;;;;;1785012;80;21251;-82
2022/10/10 12:27:01;;;;;;;3.30;2.50;;;27.60;91.30;;;;;;1789061;79;21649;-83
2022/10/10 12:29:37;;;;;;;4.22;2.72;;;27.60;91.20;;;;;;1785767;79;21153;-83
2022/10/10 12:32:10;;;;;;;5.30;2.60;;;27.50;91.30;;;;;;1785070;78;21166;-81
2022/10/10 12:34:44;;;;;;;4.00;2.72;;;27.50;91.30;;;;;;1784711;80;21978;-82
2022/10/10 12:37:17;;;;;;;3.45;2.40;;;27.50;91.30;;;;;;1786833;80;21156;-82
2022/10/10 12:39:50;;;;;;;4.83;2.75;;;27.40;91.30;;;;;;1781006;80;21140;-81
2022/10/10 12:42:24;;;;;;;4.92;2.58;;;27.40;91.30;;;;;;1763865;80;21805;-81
2022/10/10 12:44:55;;;;;;;3.67;2.60;;;27.40;91.30;;;;;;1754009;80;21091;-81
2022/10/10 12:47:29;;;;;;;3.92;2.33;;;27.40;91.30;;;;;;1756707;82;21178;-81
2022/10/10 12:50:03;;;;;;;4.03;2.50;;;27.30;91.30;;;;;;1719848;81;21736;-81
2022/10/10 12:52:55;;;;;;;4.97;2.70;;;27.30;91.60;;;;;;1774654;79;21268;-81
2022/10/10 12:55:46;;;;;;;4.78;3.27;;;27.30;91.20;;;;;;1787445;79;22333;-81
2022/10/10 12:58:50;;;;;;;4.72;2.92;;;27.30;91.30;;;;;;1776774;79;21349;-80
2022/10/10 13:01:34;;;;;;;5.05;2.35;;;27.30;91.30;;;;;;1788309;78;21147;-83
2022/10/10 13:04:05;;;;;;;7.75;3.00;;;27.30;91.30;;;;;;1790923;79;21882;-85
2022/10/10 13:06:38;;;;;;;4.15;2.72;;;27.30;91.30;;;;;;1793496;79;21264;-82
2022/10/10 13:09:11;;;;;;;5.60;2.95;;;27.30;91.30;;;;;;1791118;79;21106;-85
2022/10/10 13:11:44;;;;;;;5.33;3.15;;;27.40;91.30;;;;;;1784520;79;21084;-85
2022/10/10 13:14:36;;;;;;;4.40;2.75;;;27.40;91.20;;;;;;1786901;80;21127;-86